createdAt,value
2022-12-12T00:00:10.631Z,20.67
2022-12-12T00:02:39.832Z,20.23
2022-12-12T00:05:10.071Z,19.42
2022-12-12T00:07:38.580Z,17.63
2022-12-12T00:10:07.577Z,17.63
2022-12-12T00:12:35.814Z,18.50
2022-12-12T00:15:06.539Z,18.73
2022-12-12T00:17:34.763Z,18.08
2022-12-12T00:20:03.173Z,18.25
2022-12-12T00:22:31.361Z,18.55
2022-12-12T00:24:59.511Z,20.00
2022-12-12T00:27:27.673Z,19.27
2022-12-12T00:29:56.204Z,19.13
2022-12-12T00:32:25.797Z,19.20
2022-12-12T00:34:53.924Z,19.63
2022-12-12T00:37:22.068Z,17.85
2022-12-12T00:39:50.653Z,19.52
2022-12-12T00:42:18.815Z,18.25
2022-12-12T00:44:46.918Z,19.20
2022-12-12T00:47:15.093Z,18.50
2022-12-12T00:49:44.658Z,18.00
2022-12-12T00:52:12.833Z,15.93
2022-12-12T00:54:42.767Z,18.63
2022-12-12T00:57:10.907Z,17.65
2022-12-12T00:59:39.169Z,16.27
2022-12-12T01:02:07.372Z,17.08
2022-12-12T01:04:35.608Z,17.40
2022-12-12T01:07:05.233Z,15.75
2022-12-12T01:09:34.400Z,14.35
2022-12-12T01:12:02.748Z,15.95
2022-12-12T01:14:30.915Z,15.93
2022-12-12T01:16:59.087Z,16.70
2022-12-12T01:19:27.334Z,16.38
2022-12-12T01:21:55.793Z,18.05
2022-12-12T01:24:25.352Z,17.80
2022-12-12T01:26:53.585Z,20.08
2022-12-12T01:29:21.794Z,20.08
2022-12-12T01:31:49.908Z,16.95
2022-12-12T01:34:18.163Z,18.17
2022-12-12T01:36:46.317Z,18.33
2022-12-12T01:39:14.505Z,17.25
2022-12-12T01:41:45.181Z,17.55
2022-12-12T01:44:42.761Z,17.48
2022-12-12T01:47:11.514Z,19.02
2022-12-12T01:49:39.947Z,16.38
2022-12-12T01:52:12.335Z,16.63
2022-12-12T01:54:43.938Z,16.55
2022-12-12T01:57:15.083Z,17.23
2022-12-12T01:59:45.865Z,18.02
2022-12-12T02:02:14.326Z,16.85
2022-12-12T02:04:43.452Z,16.38
2022-12-12T02:07:11.930Z,15.68
2022-12-12T02:09:40.461Z,14.95
2022-12-12T02:12:08.697Z,15.52
2022-12-12T02:14:39.812Z,15.20
2022-12-12T02:17:29.175Z,15.07
2022-12-12T02:20:33.710Z,15.23
2022-12-12T02:23:31.017Z,16.67
2022-12-12T02:26:16.774Z,16.27
2022-12-12T02:29:17.240Z,15.40
2022-12-12T02:31:53.793Z,15.23
2022-12-12T02:34:28.307Z,16.40
2022-12-12T02:37:09.318Z,15.80
2022-12-12T02:39:48.089Z,15.50
2022-12-12T02:42:25.899Z,15.45
2022-12-12T02:44:58.078Z,15.23
2022-12-12T02:47:31.865Z,15.45
2022-12-12T02:50:06.303Z,14.93
2022-12-12T02:52:35.429Z,15.85
2022-12-12T02:55:03.591Z,13.25
2022-12-12T02:57:31.768Z,14.57
2022-12-12T03:00:03.710Z,14.98
2022-12-12T03:03:35.167Z,12.90
2022-12-12T03:06:41.011Z,14.18
2022-12-12T03:09:17.579Z,13.20
2022-12-12T03:11:58.679Z,13.48
2022-12-12T03:14:36.787Z,13.27
2022-12-12T03:17:11.939Z,14.05
2022-12-12T03:19:48.456Z,12.98
2022-12-12T03:22:25.977Z,15.10
2022-12-12T03:25:02.421Z,14.10
2022-12-12T03:27:36.016Z,14.50
2022-12-12T03:30:07.281Z,14.73
2022-12-12T03:35:13.628Z,13.82
2022-12-12T03:37:47.705Z,13.40
2022-12-12T03:40:20.663Z,13.15
2022-12-12T03:42:51.434Z,13.52
2022-12-12T03:45:25.039Z,14.52
2022-12-12T03:48:00.179Z,14.25
2022-12-12T03:50:34.625Z,13.75
2022-12-12T03:53:10.336Z,13.45
2022-12-12T03:55:44.327Z,13.10
2022-12-12T03:58:18.439Z,13.38
2022-12-12T04:00:50.067Z,13.45
2022-12-12T04:03:30.290Z,12.00
2022-12-12T04:06:23.082Z,12.43
2022-12-12T04:09:09.918Z,12.10
2022-12-12T04:12:00.752Z,11.52
2022-12-12T04:14:43.514Z,10.68
2022-12-12T04:17:16.703Z,10.38
2022-12-12T04:20:13.181Z,10.07
2022-12-12T04:23:05.732Z,11.95
2022-12-12T04:25:59.879Z,13.95
2022-12-12T04:28:30.385Z,13.82
2022-12-12T04:31:03.237Z,12.73
2022-12-12T04:33:38.558Z,13.38
2022-12-12T04:36:13.170Z,12.57
2022-12-12T04:38:44.167Z,12.68
2022-12-12T04:41:14.606Z,14.68
2022-12-12T04:43:47.838Z,12.63
2022-12-12T04:46:19.469Z,12.68
2022-12-12T04:48:53.748Z,12.77
2022-12-12T04:51:27.932Z,12.77
2022-12-12T04:54:01.494Z,12.05
2022-12-12T04:56:32.002Z,12.32
2022-12-12T04:59:00.330Z,10.97
2022-12-12T05:01:36.824Z,11.02
2022-12-12T05:04:09.096Z,10.23
2022-12-12T05:06:44.552Z,10.32
2022-12-12T05:09:17.649Z,11.13
2022-12-12T05:11:45.858Z,11.07
2022-12-12T05:14:17.070Z,11.43
2022-12-12T05:16:48.703Z,10.98
2022-12-12T05:19:16.879Z,11.48
2022-12-12T05:21:45.237Z,11.57
2022-12-12T05:24:14.838Z,12.40
2022-12-12T05:26:42.908Z,12.07
2022-12-12T05:29:11.084Z,13.35
2022-12-12T05:31:39.160Z,12.27
2022-12-12T05:34:07.232Z,12.52
2022-12-12T05:36:35.428Z,12.98
2022-12-12T05:39:03.650Z,12.30
2022-12-12T05:41:33.353Z,12.02
2022-12-12T05:44:01.593Z,11.73
2022-12-12T05:46:29.896Z,12.23
2022-12-12T05:48:58.047Z,11.55
2022-12-12T05:51:26.186Z,11.00
2022-12-12T05:53:54.413Z,9.27
2022-12-12T05:56:22.483Z,9.50
2022-12-12T05:58:52.088Z,11.05
2022-12-12T06:01:20.162Z,10.80
2022-12-12T06:03:48.452Z,11.20
2022-12-12T06:06:16.589Z,11.55
2022-12-12T06:08:44.812Z,10.60
2022-12-12T06:11:13.836Z,9.18
2022-12-12T06:13:42.054Z,8.73
2022-12-12T06:16:14.421Z,8.10
2022-12-12T06:18:42.651Z,9.45
2022-12-12T06:21:14.048Z,9.43
2022-12-12T06:23:43.687Z,10.00
2022-12-12T06:26:13.846Z,9.40
2022-12-12T06:28:42.339Z,9.35
2022-12-12T06:31:13.290Z,9.82
2022-12-12T06:33:42.779Z,11.13
2022-12-12T06:36:16.813Z,9.82
2022-12-12T06:38:45.061Z,8.80
2022-12-12T06:41:15.787Z,8.50
2022-12-12T06:43:43.880Z,7.65
2022-12-12T06:46:19.601Z,10.85
2022-12-12T06:48:48.142Z,9.30
2022-12-12T06:51:17.912Z,9.88
2022-12-12T06:53:46.307Z,9.55
2022-12-12T06:56:16.255Z,8.98
2022-12-12T06:58:44.689Z,10.82
2022-12-12T07:01:15.452Z,9.40
2022-12-12T07:03:43.801Z,9.45
2022-12-12T07:06:12.041Z,9.27
2022-12-12T07:08:42.026Z,10.57
2022-12-12T07:11:13.463Z,9.20
2022-12-12T07:13:41.618Z,9.00
2022-12-12T07:16:10.468Z,7.70
2022-12-12T07:18:40.528Z,8.82
2022-12-12T07:21:13.082Z,8.80
2022-12-12T07:23:41.338Z,8.60
2022-12-12T07:26:13.376Z,7.72
2022-12-12T07:28:41.821Z,8.65
2022-12-12T07:31:11.843Z,9.07
2022-12-12T07:33:44.519Z,8.88
2022-12-12T07:36:13.730Z,9.50
2022-12-12T07:38:42.422Z,9.40
2022-12-12T07:41:16.698Z,9.30
2022-12-12T07:43:46.372Z,9.25
2022-12-12T07:46:17.279Z,8.63
2022-12-12T07:48:47.663Z,10.38
2022-12-12T07:51:16.557Z,10.00
2022-12-12T07:53:44.763Z,11.40
2022-12-12T07:56:15.554Z,10.38
2022-12-12T07:58:43.943Z,10.18
2022-12-12T08:01:14.880Z,11.27
2022-12-12T08:06:14.372Z,11.75
2022-12-12T08:08:48.200Z,14.70
2022-12-12T08:11:18.685Z,13.70
2022-12-12T08:13:47.510Z,12.00
2022-12-12T08:16:18.425Z,14.43
2022-12-12T08:18:47.295Z,16.33
2022-12-12T08:21:25.075Z,16.70
2022-12-12T08:23:57.058Z,15.95
2022-12-12T08:26:26.077Z,15.15
2022-12-12T08:28:54.368Z,16.05
2022-12-12T08:31:23.441Z,21.90
2022-12-12T08:33:51.848Z,18.10
2022-12-12T08:36:23.310Z,16.98
2022-12-12T08:38:52.209Z,14.23
2022-12-12T08:41:21.192Z,15.18
2022-12-12T08:43:50.292Z,15.45
2022-12-12T08:46:19.907Z,18.85
2022-12-12T08:48:48.669Z,18.80
2022-12-12T08:51:18.511Z,14.20
2022-12-12T08:53:49.126Z,15.77
2022-12-12T08:56:18.312Z,13.40
2022-12-12T08:58:46.874Z,14.05
2022-12-12T09:01:16.767Z,15.38
2022-12-12T09:03:44.958Z,16.02
2022-12-12T09:06:14.436Z,16.48
2022-12-12T09:08:43.599Z,14.60
2022-12-12T09:11:14.021Z,13.60
2022-12-12T09:13:42.419Z,13.20
2022-12-12T09:16:11.404Z,14.40
2022-12-12T09:18:46.353Z,14.45
2022-12-12T09:21:17.086Z,13.88
2022-12-12T09:23:46.292Z,16.40
2022-12-12T09:26:15.884Z,12.65
2022-12-12T09:28:43.939Z,16.00
2022-12-12T09:31:14.050Z,19.55
2022-12-12T09:33:43.081Z,16.00
2022-12-12T09:36:12.225Z,17.05
2022-12-12T09:38:40.949Z,15.20
2022-12-12T09:41:16.698Z,15.15
2022-12-12T09:43:52.817Z,14.68
2022-12-12T09:46:33.359Z,15.98
2022-12-12T09:49:23.810Z,15.57
2022-12-12T09:51:53.446Z,16.55
2022-12-12T09:54:23.901Z,18.13
2022-12-12T09:57:12.165Z,16.52
2022-12-12T09:59:45.587Z,17.05
2022-12-12T10:02:29.707Z,15.70
2022-12-12T10:05:03.093Z,15.27
2022-12-12T10:07:40.196Z,15.55
2022-12-12T10:10:21.906Z,12.30
2022-12-12T10:12:53.923Z,11.50
2022-12-12T10:15:30.884Z,16.00
2022-12-12T10:18:01.781Z,14.48
2022-12-12T10:20:32.263Z,12.25
2022-12-12T10:23:03.758Z,12.57
2022-12-12T10:25:42.776Z,11.48
2022-12-12T10:28:15.521Z,12.77
2022-12-12T10:31:10.722Z,12.70
2022-12-12T10:33:52.500Z,13.98
2022-12-12T10:36:29.823Z,13.88
2022-12-12T10:39:14.294Z,13.07
2022-12-12T10:41:48.351Z,16.05
2022-12-12T10:44:32.491Z,16.75
2022-12-12T10:47:04.508Z,18.20
2022-12-12T10:49:33.626Z,18.52
2022-12-12T10:52:04.964Z,22.60
2022-12-12T10:57:11.097Z,17.17
2022-12-12T10:59:45.782Z,20.75
2022-12-12T11:02:38.696Z,19.80
2022-12-12T11:05:18.090Z,20.23
2022-12-12T11:07:49.694Z,21.33
2022-12-12T11:10:32.141Z,27.25
2022-12-12T11:13:04.983Z,17.45
2022-12-12T11:15:42.414Z,20.02
2022-12-12T11:18:16.557Z,17.58
2022-12-12T11:20:47.927Z,19.60
2022-12-12T11:25:47.445Z,18.25
2022-12-12T11:28:23.355Z,17.05
2022-12-12T11:30:59.005Z,18.67
2022-12-12T11:33:33.736Z,18.65
2022-12-12T11:36:06.564Z,19.23
2022-12-12T11:38:41.214Z,20.60
2022-12-12T11:41:11.219Z,20.88
2022-12-12T11:43:53.528Z,19.38
2022-12-12T11:46:26.407Z,19.48
2022-12-12T11:49:03.054Z,19.60
2022-12-12T11:51:38.255Z,19.73
2022-12-12T11:54:13.196Z,17.63
2022-12-12T11:56:54.217Z,18.50
2022-12-12T11:59:33.674Z,18.98
2022-12-12T12:02:21.915Z,19.65
2022-12-12T12:04:56.668Z,20.00
2022-12-12T12:07:46.143Z,19.33
2022-12-12T12:10:24.244Z,15.63
2022-12-12T12:13:01.765Z,18.02
2022-12-12T12:15:37.210Z,21.38
2022-12-12T12:18:32.056Z,17.55
2022-12-12T12:21:27.754Z,18.92
2022-12-12T12:24:07.405Z,15.55
2022-12-12T12:26:41.289Z,18.45
2022-12-12T12:29:31.036Z,17.60
2022-12-12T12:32:09.724Z,19.42
2022-12-12T12:34:50.029Z,21.65
2022-12-12T12:37:33.034Z,19.90
2022-12-12T12:40:15.668Z,18.75
2022-12-12T12:42:59.819Z,23.60
2022-12-12T12:45:37.735Z,18.88
2022-12-12T12:48:16.828Z,19.88
2022-12-12T12:50:52.103Z,23.27
2022-12-12T12:53:30.293Z,19.08
2022-12-12T12:56:04.178Z,19.63
2022-12-12T12:58:39.858Z,23.00
2022-12-12T13:01:12.919Z,20.58
2022-12-12T13:03:47.392Z,22.17
2022-12-12T13:06:22.531Z,27.02
2022-12-12T13:08:59.020Z,26.92
2022-12-12T13:11:38.753Z,24.60
2022-12-12T13:14:14.553Z,25.35
2022-12-12T13:16:44.423Z,25.90
2022-12-12T13:19:17.147Z,28.25
2022-12-12T13:21:54.029Z,29.30
2022-12-12T13:24:27.271Z,27.75
2022-12-12T13:27:02.788Z,27.02
2022-12-12T13:29:40.713Z,25.13
2022-12-12T13:32:39.848Z,26.75
2022-12-12T13:35:12.996Z,27.77
2022-12-12T13:37:49.619Z,28.65
2022-12-12T13:40:28.354Z,27.35
2022-12-12T13:43:01.647Z,29.27
2022-12-12T13:45:42.974Z,25.33
2022-12-12T13:48:41.435Z,26.17
2022-12-12T13:54:51.296Z,23.50
2022-12-12T13:57:26.982Z,22.60
2022-12-12T14:00:19.853Z,23.55
2022-12-12T14:03:01.484Z,27.52
2022-12-12T14:05:33.104Z,27.33
2022-12-12T14:08:20.529Z,26.02
2022-12-12T14:10:56.632Z,24.60
2022-12-12T14:13:50.792Z,23.40
2022-12-12T14:16:23.142Z,27.77
2022-12-12T14:19:04.275Z,24.73
2022-12-12T14:21:45.200Z,25.55
2022-12-12T14:24:48.161Z,22.63
2022-12-12T14:27:16.813Z,25.97
2022-12-12T14:29:47.234Z,26.60
2022-12-12T14:32:41.895Z,37.35
2022-12-12T14:35:29.254Z,29.63
2022-12-12T14:38:03.754Z,29.85
2022-12-12T14:40:34.991Z,28.92
2022-12-12T14:43:19.208Z,25.35
2022-12-12T14:45:57.350Z,24.75
2022-12-12T14:48:29.927Z,30.98
2022-12-12T14:51:02.844Z,25.27
2022-12-12T14:53:35.290Z,21.77
2022-12-12T14:56:08.711Z,25.08
2022-12-12T14:58:41.316Z,30.85
2022-12-12T15:01:11.374Z,25.08
2022-12-12T15:03:44.515Z,21.85
2022-12-12T15:06:30.564Z,21.52
2022-12-12T15:09:08.429Z,29.80
2022-12-12T15:11:37.158Z,34.05
2022-12-12T15:14:05.787Z,26.33
2022-12-12T15:16:47.669Z,22.63
2022-12-12T15:19:20.567Z,27.55
2022-12-12T15:21:49.438Z,23.88
2022-12-12T15:24:23.360Z,22.95
2022-12-12T15:26:53.380Z,31.13
2022-12-12T15:29:24.932Z,27.67
2022-12-12T15:32:00.506Z,25.08
2022-12-12T15:34:43.454Z,23.92
2022-12-12T15:37:23.258Z,20.33
2022-12-12T15:40:17.631Z,19.88
2022-12-12T15:42:48.641Z,16.83
2022-12-12T15:45:20.971Z,24.25
2022-12-12T15:47:53.264Z,20.30
2022-12-12T15:50:23.619Z,22.23
2022-12-12T15:53:02.593Z,28.23
2022-12-12T15:55:31.611Z,26.35
2022-12-12T15:58:00.124Z,20.50
2022-12-12T16:00:35.526Z,34.42
2022-12-12T16:03:20.294Z,22.95
2022-12-12T16:06:03.213Z,28.88
2022-12-12T16:08:40.507Z,19.35
2022-12-12T16:11:32.883Z,21.75
2022-12-12T16:14:01.438Z,21.70
2022-12-12T16:16:53.713Z,21.73
2022-12-12T16:19:46.575Z,19.65
2022-12-12T16:22:21.562Z,27.05
2022-12-12T16:24:51.802Z,30.20
2022-12-12T16:27:20.380Z,22.67
2022-12-12T16:29:49.119Z,31.05
2022-12-12T16:32:19.359Z,22.25
2022-12-12T16:34:49.037Z,31.70
2022-12-12T16:37:19.437Z,22.23
2022-12-12T16:39:47.650Z,30.33
2022-12-12T16:42:17.048Z,23.42
2022-12-12T16:44:45.705Z,23.67
2022-12-12T16:47:17.243Z,32.88
2022-12-12T16:49:45.582Z,21.85
2022-12-12T16:52:15.851Z,22.67
2022-12-12T16:54:52.585Z,25.40
2022-12-12T16:57:22.015Z,88.47
2022-12-12T16:59:50.397Z,32.25
2022-12-12T17:02:21.476Z,38.65
2022-12-12T17:04:50.188Z,23.23
2022-12-12T17:07:20.245Z,29.33
2022-12-12T17:09:48.418Z,29.45
2022-12-12T17:12:16.537Z,26.83
2022-12-12T17:14:44.778Z,48.17
2022-12-12T17:17:13.339Z,24.95
2022-12-12T17:19:41.412Z,20.55
2022-12-12T17:22:09.479Z,21.90
2022-12-12T17:24:39.044Z,21.17
2022-12-12T17:27:07.135Z,35.72
2022-12-12T17:29:35.304Z,36.15
2022-12-12T17:32:06.477Z,37.05
2022-12-12T17:34:34.728Z,22.17
2022-12-12T17:37:02.965Z,21.25
2022-12-12T17:39:31.030Z,24.10
2022-12-12T17:42:00.561Z,37.50
2022-12-12T17:44:28.799Z,38.13
2022-12-12T17:46:56.838Z,25.02
2022-12-12T17:49:25.030Z,35.38
2022-12-12T17:51:53.297Z,40.60
2022-12-12T17:54:21.873Z,30.83
2022-12-12T17:56:50.900Z,30.60
2022-12-12T17:59:20.892Z,33.00
2022-12-12T18:01:56.908Z,24.38
2022-12-12T18:04:28.539Z,32.92
2022-12-12T18:06:56.923Z,31.23
2022-12-12T18:09:26.112Z,35.88
2022-12-12T18:11:54.259Z,35.75
2022-12-12T18:14:23.833Z,29.00
2022-12-12T18:16:53.316Z,24.60
2022-12-12T18:19:23.233Z,23.02
2022-12-12T18:22:01.006Z,40.40
2022-12-12T18:24:30.544Z,25.45
2022-12-12T18:27:00.135Z,25.02
2022-12-12T18:29:29.702Z,22.75
2022-12-12T18:31:57.865Z,27.38
2022-12-12T18:34:26.450Z,23.95
2022-12-12T18:36:54.603Z,28.35
2022-12-12T18:39:22.864Z,24.20
2022-12-12T18:41:52.187Z,22.13
2022-12-12T18:44:20.340Z,59.85
2022-12-12T18:46:50.732Z,27.42
2022-12-12T18:49:19.241Z,22.60
2022-12-12T18:51:48.036Z,37.97
2022-12-12T18:54:17.162Z,29.67
2022-12-12T18:56:46.586Z,27.27
2022-12-12T18:59:15.073Z,20.98
2022-12-12T19:01:43.753Z,17.52
2022-12-12T19:04:20.847Z,20.73
2022-12-12T19:06:51.243Z,23.88
2022-12-12T19:09:20.534Z,25.88
2022-12-12T19:11:49.171Z,35.38
2022-12-12T19:14:18.329Z,26.70
2022-12-12T19:16:46.989Z,24.75
2022-12-12T19:19:16.684Z,22.65
2022-12-12T19:21:46.410Z,22.10
2022-12-12T19:24:14.568Z,20.88
2022-12-12T19:26:44.470Z,20.63
2022-12-12T19:29:14.264Z,20.48
2022-12-12T19:31:42.864Z,17.55
2022-12-12T19:34:13.315Z,19.42
2022-12-12T19:36:43.680Z,14.97
2022-12-12T19:39:13.806Z,27.70
2022-12-12T19:41:42.606Z,23.33
2022-12-12T19:44:13.157Z,24.80
2022-12-12T19:46:43.226Z,16.40
2022-12-12T19:49:13.729Z,19.02
2022-12-12T19:51:45.026Z,19.83
2022-12-12T19:56:42.636Z,19.92
2022-12-12T19:59:13.380Z,19.23
2022-12-12T20:01:42.143Z,22.70
2022-12-12T20:04:15.876Z,22.80
2022-12-12T20:06:46.533Z,21.60
2022-12-12T20:09:17.709Z,16.88
2022-12-12T20:11:46.057Z,24.88
2022-12-12T20:14:16.459Z,34.03
2022-12-12T20:16:45.178Z,17.40
2022-12-12T20:19:14.307Z,22.85
2022-12-12T20:22:03.318Z,24.40
2022-12-12T20:24:33.027Z,23.17
2022-12-12T20:27:03.244Z,21.65
2022-12-12T20:29:31.729Z,24.67
2022-12-12T20:32:01.387Z,24.67
2022-12-12T20:34:30.259Z,23.63
2022-12-12T20:36:59.766Z,26.83
2022-12-12T20:39:28.173Z,27.55
2022-12-12T20:41:57.060Z,27.90
2022-12-12T20:44:25.861Z,37.17
2022-12-12T20:46:54.490Z,30.83
2022-12-12T20:49:24.799Z,30.48
2022-12-12T20:51:56.460Z,35.65
2022-12-12T20:54:28.893Z,40.05
2022-12-12T20:56:57.699Z,64.28
2022-12-12T20:59:26.073Z,78.88
2022-12-12T21:01:54.598Z,69.90
2022-12-12T21:04:24.353Z,61.65
2022-12-12T21:06:52.932Z,63.38
2022-12-12T21:09:25.803Z,50.80
2022-12-12T21:11:59.055Z,48.47
2022-12-12T21:14:30.889Z,45.08
2022-12-12T21:16:59.129Z,40.88
2022-12-12T21:19:27.626Z,36.72
2022-12-12T21:21:56.232Z,38.17
2022-12-12T21:24:24.608Z,37.92
2022-12-12T21:26:52.862Z,36.97
2022-12-12T21:29:22.364Z,34.90
2022-12-12T21:31:52.339Z,38.17
2022-12-12T21:34:22.318Z,32.75
2022-12-12T21:36:53.857Z,33.50
2022-12-12T21:39:23.235Z,35.38
2022-12-12T21:41:51.801Z,33.85
2022-12-12T21:44:21.005Z,37.65
2022-12-12T21:46:50.659Z,39.25
2022-12-12T21:49:27.773Z,35.47
2022-12-12T21:51:58.048Z,34.05
2022-12-12T21:54:26.861Z,31.75
2022-12-12T21:56:55.615Z,33.55
2022-12-12T21:59:24.652Z,39.95
2022-12-12T22:01:55.800Z,61.38
2022-12-12T22:06:51.898Z,41.05
2022-12-12T22:09:20.155Z,40.92
2022-12-12T22:12:03.621Z,36.95
2022-12-12T22:14:33.896Z,38.78
2022-12-12T22:17:04.191Z,40.63
2022-12-12T22:19:32.644Z,44.70
2022-12-12T22:22:00.929Z,45.88
2022-12-12T22:24:29.201Z,48.80
2022-12-12T22:26:57.282Z,51.92
2022-12-12T22:29:25.493Z,53.38
2022-12-12T22:31:53.817Z,54.85
2022-12-12T22:34:24.737Z,56.28
2022-12-12T22:36:53.673Z,50.35
2022-12-12T22:39:24.113Z,50.88
2022-12-12T22:41:52.424Z,40.22
2022-12-12T22:44:22.973Z,48.40
2022-12-12T22:46:53.132Z,50.88
2022-12-12T22:49:26.710Z,51.05
2022-12-12T22:51:55.786Z,51.92
2022-12-12T22:54:24.128Z,51.50
2022-12-12T22:56:52.343Z,54.17
2022-12-12T22:59:20.549Z,54.40
2022-12-12T23:01:48.723Z,50.47
2022-12-12T23:04:16.959Z,53.85
2022-12-12T23:06:46.787Z,53.28
2022-12-12T23:09:17.414Z,50.83
2022-12-12T23:11:46.367Z,52.65
2022-12-12T23:14:16.551Z,52.67
2022-12-12T23:16:45.204Z,49.92
2022-12-12T23:19:16.212Z,47.55
2022-12-12T23:21:44.570Z,45.08
2022-12-12T23:24:15.231Z,43.58
2022-12-12T23:26:44.068Z,42.55
2022-12-12T23:29:16.495Z,41.40
2022-12-12T23:31:44.931Z,39.78
2022-12-12T23:34:18.248Z,39.92
2022-12-12T23:36:46.423Z,38.33
2022-12-12T23:39:16.134Z,36.33
2022-12-12T23:41:44.508Z,36.67
2022-12-12T23:44:14.498Z,36.72
2022-12-12T23:46:43.295Z,38.40
2022-12-12T23:49:16.671Z,36.28
2022-12-12T23:51:46.345Z,38.97
2022-12-12T23:54:18.065Z,39.30
2022-12-12T23:56:47.101Z,36.85
2022-12-12T23:59:18.206Z,37.45
